Terminal Aerodrome Forecast
Issued by NWS

Home | Current Version | Previous Version | Text Only | Print | Product List | Glossary On
Versions: 1 2 3 4 5 6 7 8 9 10 11 12 13 14 15 16 17 18 19 20
133
FTUS44 KLZK 262340
TAFHRO
TAF
KHRO 262340Z 2700/2724 16008G16KT P6SM BKN100 OVC250
     FM270500 14008KT P6SM VCTS BKN050CB OVC100
      TEMPO 2705/2708 4SM -TSRA BR OVC025CB
     FM270800 18008KT 5SM -SHRA BR VCTS OVC015CB
     FM271400 19008KT P6SM OVC015
     FM271800 27010KT P6SM BKN025=

USA.gov is the U.S. government's official web portal to all federal, state and local government web resources and services.